Time;durP1;ratioP1;P1;durP2;ratioP2;P2;SDS_P1;SDS_P2;PMS_P1;PMS_P2;Temp;Humidity;BMP_temperature;BMP_pressure;BME280_temperature;BME280_humidity;BME280_pressure;Samples;Min_cycle;Max_cycle;Signal;HPM_P1;HPM_P2
2022/09/11 00:01:24;;;;;;;4.07;3.67;;;15.60;99.90;;;;;;5048116;28;20031;-45
2022/09/11 00:03:50;;;;;;;4.78;4.13;;;15.50;99.90;;;;;;5047380;28;20563;-46
2022/09/11 00:06:21;;;;;;;5.15;4.50;;;15.50;99.90;;;;;;5040544;28;20021;-45
2022/09/11 00:08:50;;;;;;;4.75;4.15;;;15.40;99.90;;;;;;5039905;28;20017;-47
2022/09/11 00:11:17;;;;;;;6.47;4.72;;;15.40;99.90;;;;;;5048247;28;20021;-47
2022/09/11 00:13:45;;;;;;;4.65;4.18;;;15.30;99.90;;;;;;5047878;28;20021;-45
2022/09/11 00:16:20;;;;;;;5.47;4.28;;;15.30;99.90;;;;;;5048290;28;20067;-48
2022/09/11 00:18:46;;;;;;;5.43;4.53;;;15.30;99.90;;;;;;5048428;28;20033;-45
2022/09/11 00:21:11;;;;;;;5.38;3.47;;;15.20;99.90;;;;;;5048749;28;20664;-46
2022/09/11 00:23:37;;;;;;;4.95;4.22;;;15.20;99.90;;;;;;5049209;28;20413;-45
2022/09/11 00:26:03;;;;;;;5.03;4.47;;;15.20;99.90;;;;;;5049529;28;20029;-46
2022/09/11 00:28:29;;;;;;;4.32;3.92;;;15.10;99.90;;;;;;5049613;28;20367;-45
2022/09/11 00:31:04;;;;;;;4.85;4.35;;;15.10;99.90;;;;;;5051146;28;20032;-44
2022/09/11 00:33:32;;;;;;;5.53;4.72;;;15.00;99.90;;;;;;5052928;28;20025;-45
2022/09/11 00:36:00;;;;;;;5.15;4.65;;;15.00;99.90;;;;;;5047414;28;20398;-45
2022/09/11 00:38:28;;;;;;;5.72;4.20;;;15.00;99.90;;;;;;5044718;28;20075;-45
2022/09/11 00:40:57;;;;;;;6.95;4.68;;;15.00;99.90;;;;;;5052850;28;20112;-45
2022/09/11 00:43:23;;;;;;;7.65;5.47;;;14.90;99.90;;;;;;5052500;28;20020;-44
2022/09/11 00:45:56;;;;;;;5.72;4.85;;;14.90;99.90;;;;;;5046032;28;20160;-46
2022/09/11 00:48:26;;;;;;;6.78;5.47;;;14.80;99.90;;;;;;5043198;28;20025;-46
2022/09/11 00:50:54;;;;;;;5.65;4.88;;;14.80;99.90;;;;;;5052926;28;20021;-45
2022/09/11 00:53:24;;;;;;;7.15;5.03;;;14.70;99.90;;;;;;5052376;28;20437;-46
2022/09/11 00:55:55;;;;;;;6.18;5.53;;;14.70;99.90;;;;;;5052753;28;20372;-48
2022/09/11 00:58:24;;;;;;;7.05;5.75;;;14.70;99.90;;;;;;5052687;28;20025;-46
2022/09/11 01:00:53;;;;;;;7.38;6.45;;;14.60;99.90;;;;;;5052526;28;20116;-48
2022/09/11 01:03:19;;;;;;;7.55;5.85;;;14.60;99.90;;;;;;5052227;28;20033;-46
2022/09/11 01:05:45;;;;;;;9.05;6.80;;;14.60;99.90;;;;;;5050083;28;20033;-47
2022/09/11 01:08:11;;;;;;;8.00;6.53;;;14.50;99.90;;;;;;5042048;28;20084;-45
2022/09/11 01:11:03;;;;;;;8.48;6.90;;;14.50;99.90;;;;;;5052503;28;20016;-45
2022/09/11 01:13:37;;;;;;;8.38;7.05;;;14.40;99.90;;;;;;5052118;28;20049;-47
2022/09/11 01:16:16;;;;;;;7.53;6.13;;;14.40;99.90;;;;;;5052324;28;20024;-49
2022/09/11 01:18:52;;;;;;;9.00;6.85;;;14.40;99.90;;;;;;5052167;28;20076;-45
2022/09/11 01:21:32;;;;;;;7.97;6.60;;;14.40;99.90;;;;;;5052371;28;20029;-46
2022/09/11 01:24:23;;;;;;;8.30;6.80;;;14.40;99.90;;;;;;5042738;28;20486;-47
2022/09/11 01:26:58;;;;;;;8.07;7.28;;;14.40;99.90;;;;;;5033052;28;20063;-49
2022/09/11 01:29:55;;;;;;;8.93;6.30;;;14.30;99.90;;;;;;5037738;28;20509;-48
2022/09/11 01:32:35;;;;;;;8.55;6.82;;;14.30;99.90;;;;;;5043175;28;20123;-46
2022/09/11 01:35:11;;;;;;;8.48;7.35;;;14.30;99.90;;;;;;5052117;28;20021;-47
2022/09/11 01:38:06;;;;;;;8.20;7.18;;;14.30;99.90;;;;;;5051985;28;20374;-46
2022/09/11 01:40:53;;;;;;;9.85;7.72;;;14.30;99.90;;;;;;5045128;28;20167;-46
2022/09/11 01:43:27;;;;;;;11.98;9.55;;;14.30;99.90;;;;;;5051168;28;20060;-45
2022/09/11 01:45:55;;;;;;;14.25;9.65;;;14.30;99.90;;;;;;5050397;28;20112;-46
2022/09/11 01:48:25;;;;;;;12.18;9.85;;;14.40;99.90;;;;;;5050593;28;20025;-49
2022/09/11 01:50:54;;;;;;;20.95;15.10;;;14.40;99.90;;;;;;5051879;28;20086;-46
2022/09/11 01:53:23;;;;;;;23.55;17.27;;;14.50;99.90;;;;;;5051166;28;20028;-45
2022/09/11 01:56:04;;;;;;;26.15;19.13;;;14.50;99.90;;;;;;5051536;28;20044;-48
2022/09/11 01:58:35;;;;;;;25.60;18.75;;;14.50;99.90;;;;;;5033667;28;20033;-47
2022/09/11 02:01:19;;;;;;;20.70;16.58;;;14.50;99.90;;;;;;5027088;28;20033;-45
2022/09/11 02:04:09;;;;;;;24.23;18.55;;;14.60;99.90;;;;;;5021891;28;20029;-46
2022/09/11 02:07:01;;;;;;;28.38;20.27;;;14.60;99.90;;;;;;5024548;28;20030;-48
2022/09/11 02:09:34;;;;;;;22.60;17.02;;;14.60;99.90;;;;;;5018684;28;20073;-47
2022/09/11 02:12:05;;;;;;;23.25;17.73;;;14.70;99.90;;;;;;5020798;28;20112;-45
2022/09/11 02:14:41;;;;;;;19.30;14.55;;;14.60;99.90;;;;;;5019740;28;20373;-49
2022/09/11 02:17:34;;;;;;;20.30;16.98;;;14.60;99.90;;;;;;5020034;28;20056;-45
2022/09/11 02:20:03;;;;;;;20.48;15.70;;;14.60;99.90;;;;;;5020989;28;20125;-46
2022/09/11 02:22:29;;;;;;;25.60;16.98;;;14.60;99.90;;;;;;5018079;28;20032;-46
2022/09/11 02:24:55;;;;;;;19.10;15.40;;;14.50;99.90;;;;;;5021355;28;20100;-46
2022/09/11 02:27:26;;;;;;;19.05;16.40;;;14.50;99.90;;;;;;5021098;28;20030;-45
2022/09/11 02:29:54;;;;;;;20.13;16.85;;;14.50;99.90;;;;;;5022110;28;20071;-49
2022/09/11 02:32:21;;;;;;;19.95;16.25;;;14.40;99.90;;;;;;5020855;28;20030;-48
2022/09/11 02:34:47;;;;;;;24.75;20.05;;;14.40;99.90;;;;;;5019525;28;20036;-49
2022/09/11 02:37:44;;;;;;;30.55;18.85;;;14.40;99.90;;;;;;5025199;28;20025;-46
2022/09/11 02:40:36;;;;;;;22.40;18.60;;;14.40;99.90;;;;;;5023387;28;20026;-46
2022/09/11 02:43:21;;;;;;;22.15;18.05;;;14.30;99.90;;;;;;5020726;28;20037;-46
2022/09/11 02:46:05;;;;;;;24.05;18.33;;;14.30;99.90;;;;;;5021448;28;20025;-48
2022/09/11 02:48:49;;;;;;;22.70;17.70;;;14.40;99.90;;;;;;5019563;28;20026;-46
2022/09/11 02:51:20;;;;;;;22.55;18.17;;;14.40;99.90;;;;;;5019636;28;20504;-47
2022/09/11 02:54:07;;;;;;;36.58;20.77;;;14.40;99.90;;;;;;5018167;28;20025;-49
2022/09/11 02:56:55;;;;;;;29.05;21.40;;;14.30;99.90;;;;;;5019376;28;20543;-47
2022/09/11 02:59:27;;;;;;;29.73;19.23;;;14.30;99.90;;;;;;5020825;28;20026;-46
2022/09/11 03:01:59;;;;;;;30.85;22.05;;;14.30;99.90;;;;;;5019641;28;20535;-49
2022/09/11 03:04:24;;;;;;;26.73;19.58;;;14.40;99.90;;;;;;5019241;28;20041;-47
2022/09/11 03:06:51;;;;;;;34.75;24.77;;;14.40;99.90;;;;;;5024720;28;20441;-50
2022/09/11 03:09:18;;;;;;;38.08;23.05;;;14.40;99.90;;;;;;5028496;28;20048;-46
2022/09/11 03:11:44;;;;;;;35.45;24.95;;;14.40;99.90;;;;;;5018678;28;20025;-48
2022/09/11 03:14:10;;;;;;;49.35;28.00;;;14.40;99.90;;;;;;5011964;28;20022;-46
2022/09/11 03:16:36;;;;;;;36.55;24.60;;;14.40;99.90;;;;;;5021117;28;21361;-45
2022/09/11 03:19:03;;;;;;;42.65;27.20;;;14.40;99.90;;;;;;5019160;28;20038;-46
2022/09/11 03:21:29;;;;;;;37.35;24.77;;;14.40;99.90;;;;;;5019819;28;20029;-45
2022/09/11 03:23:56;;;;;;;39.42;26.27;;;14.50;99.90;;;;;;5017869;28;20029;-46
2022/09/11 03:26:22;;;;;;;39.55;26.55;;;14.50;99.90;;;;;;5018767;28;20022;-46
2022/09/11 03:28:49;;;;;;;38.83;25.80;;;14.50;99.90;;;;;;5019959;28;20022;-46
2022/09/11 03:31:15;;;;;;;39.20;26.92;;;14.50;99.90;;;;;;5020645;28;20026;-46
2022/09/11 03:33:40;;;;;;;43.05;28.92;;;14.60;99.90;;;;;;5017368;28;20033;-47
2022/09/11 03:36:06;;;;;;;47.47;29.65;;;14.60;99.90;;;;;;5017290;28;20026;-47
2022/09/11 03:38:31;;;;;;;45.92;28.83;;;14.60;99.90;;;;;;5019707;28;20022;-46
2022/09/11 03:40:57;;;;;;;52.70;33.00;;;14.60;99.90;;;;;;5018087;28;20022;-48
2022/09/11 03:43:23;;;;;;;53.53;31.60;;;14.60;99.90;;;;;;5026903;28;20034;-46
2022/09/11 03:45:50;;;;;;;57.10;30.67;;;14.60;99.90;;;;;;5022329;28;20057;-46
2022/09/11 03:48:17;;;;;;;63.85;34.00;;;14.60;99.90;;;;;;5020159;28;20022;-45
2022/09/11 03:50:44;;;;;;;63.00;35.00;;;14.60;99.90;;;;;;5018397;28;20018;-46
2022/09/11 03:53:10;;;;;;;67.25;33.85;;;14.70;99.90;;;;;;5015309;28;20097;-46
2022/09/11 03:55:36;;;;;;;67.60;36.25;;;14.60;99.90;;;;;;5009936;28;20384;-46
2022/09/11 03:58:02;;;;;;;67.05;34.47;;;14.60;99.90;;;;;;5009723;28;20054;-46
2022/09/11 04:00:27;;;;;;;60.85;31.98;;;14.60;99.90;;;;;;5010045;28;20592;-45
2022/09/11 04:02:54;;;;;;;63.92;34.35;;;14.70;99.90;;;;;;5009646;28;20438;-46
2022/09/11 04:05:21;;;;;;;64.25;33.10;;;14.70;99.90;;;;;;5010741;28;20108;-45
2022/09/11 04:07:47;;;;;;;63.90;33.60;;;14.70;99.90;;;;;;5034474;28;20043;-46
2022/09/11 04:10:12;;;;;;;66.30;34.47;;;14.70;99.90;;;;;;5045258;28;20021;-47
2022/09/11 04:12:38;;;;;;;64.05;31.85;;;14.70;99.90;;;;;;5053244;28;20029;-46
2022/09/11 04:15:04;;;;;;;61.25;32.35;;;14.70;99.90;;;;;;5053536;28;20017;-47
2022/09/11 04:17:29;;;;;;;61.40;32.40;;;14.70;99.90;;;;;;5053523;28;20028;-47
2022/09/11 04:19:56;;;;;;;71.07;34.55;;;14.80;99.90;;;;;;5053415;28;20033;-49
2022/09/11 04:22:23;;;;;;;77.38;34.40;;;14.70;99.90;;;;;;5051578;28;20494;-46
2022/09/11 04:24:48;;;;;;;72.55;33.08;;;14.70;99.90;;;;;;5051901;28;20028;-47
2022/09/11 04:27:14;;;;;;;71.65;33.35;;;14.70;99.90;;;;;;5051972;28;20514;-46
2022/09/11 04:29:39;;;;;;;82.30;38.28;;;14.70;99.90;;;;;;5043089;28;20013;-46
2022/09/11 04:32:05;;;;;;;76.00;37.08;;;14.70;99.90;;;;;;5053322;28;20025;-46
2022/09/11 04:34:30;;;;;;;70.30;33.88;;;14.70;99.90;;;;;;5052686;28;20446;-46
2022/09/11 04:36:56;;;;;;;77.47;36.25;;;14.70;99.90;;;;;;5052714;28;20103;-47
2022/09/11 04:39:22;;;;;;;77.50;37.13;;;14.80;99.90;;;;;;5052438;28;20029;-46
2022/09/11 04:41:48;;;;;;;83.40;37.08;;;14.70;99.90;;;;;;5051125;28;20107;-45
2022/09/11 04:44:13;;;;;;;73.13;31.80;;;14.70;99.90;;;;;;5051787;28;20036;-48
2022/09/11 04:46:40;;;;;;;78.63;35.88;;;14.80;99.90;;;;;;5052486;28;20029;-47
2022/09/11 04:49:07;;;;;;;75.97;34.22;;;14.80;99.90;;;;;;5051197;28;20017;-47
2022/09/11 04:51:37;;;;;;;83.80;35.90;;;14.80;99.90;;;;;;5052449;28;20021;-48
2022/09/11 04:54:03;;;;;;;67.40;31.83;;;14.70;99.90;;;;;;5050612;28;20025;-47
2022/09/11 04:56:31;;;;;;;69.75;31.88;;;14.80;99.90;;;;;;5052386;28;20021;-44
2022/09/11 04:59:00;;;;;;;73.95;34.33;;;14.80;99.90;;;;;;5042670;28;20525;-45
2022/09/11 05:01:28;;;;;;;71.93;31.92;;;14.80;99.90;;;;;;5012756;28;20711;-44
2022/09/11 05:03:55;;;;;;;58.25;30.30;;;14.70;99.90;;;;;;5011682;28;20037;-43
2022/09/11 05:06:21;;;;;;;70.97;32.22;;;14.80;99.90;;;;;;5012886;28;20117;-44
2022/09/11 05:08:47;;;;;;;63.53;30.23;;;14.70;99.90;;;;;;5039985;28;20049;-45
2022/09/11 05:11:15;;;;;;;59.42;28.42;;;14.80;99.90;;;;;;5049686;28;20079;-46
2022/09/11 05:13:41;;;;;;;66.18;31.35;;;14.70;99.90;;;;;;5051010;28;20025;-47
2022/09/11 05:16:10;;;;;;;60.45;28.05;;;14.80;99.90;;;;;;5050354;28;20059;-47
2022/09/11 05:18:37;;;;;;;62.55;30.35;;;14.80;99.90;;;;;;5038280;28;20076;-46
2022/09/11 05:21:06;;;;;;;67.95;30.38;;;14.80;99.90;;;;;;5047862;28;20044;-47
2022/09/11 05:23:33;;;;;;;64.78;31.20;;;14.70;99.90;;;;;;5050415;28;20029;-47
2022/09/11 05:26:00;;;;;;;55.22;28.00;;;14.70;99.90;;;;;;5040359;28;20036;-48
2022/09/11 05:28:27;;;;;;;67.50;29.67;;;14.70;99.90;;;;;;5035218;28;20027;-48
2022/09/11 05:30:55;;;;;;;55.85;26.85;;;14.70;99.90;;;;;;5051056;28;20052;-44
2022/09/11 05:33:23;;;;;;;52.20;24.58;;;14.70;99.90;;;;;;5037885;28;20028;-45
2022/09/11 05:35:50;;;;;;;50.20;25.20;;;14.80;99.90;;;;;;5045692;28;20028;-45
2022/09/11 05:38:15;;;;;;;50.60;24.63;;;14.70;99.90;;;;;;5050996;28;20025;-44
2022/09/11 05:40:50;;;;;;;45.97;24.42;;;14.80;99.90;;;;;;5051212;28;20490;-44
2022/09/11 05:43:16;;;;;;;45.35;25.88;;;14.80;99.90;;;;;;5050806;28;20021;-45
2022/09/11 05:45:44;;;;;;;43.50;24.10;;;14.80;99.90;;;;;;5050446;28;20029;-44
2022/09/11 05:48:10;;;;;;;43.22;23.20;;;14.80;99.90;;;;;;5050631;28;20021;-47
2022/09/11 05:50:36;;;;;;;43.30;22.30;;;14.90;99.90;;;;;;5039098;28;20518;-45
2022/09/11 05:53:03;;;;;;;45.08;22.95;;;14.90;99.90;;;;;;5047514;28;20094;-45
2022/09/11 05:55:31;;;;;;;38.60;20.08;;;14.90;99.90;;;;;;5050894;28;20052;-45
2022/09/11 05:57:57;;;;;;;44.35;22.48;;;14.90;99.90;;;;;;5049306;28;20339;-45
2022/09/11 06:00:22;;;;;;;36.83;20.48;;;15.00;99.90;;;;;;5049343;28;20135;-44
2022/09/11 06:02:48;;;;;;;38.47;20.52;;;15.00;99.90;;;;;;5048808;28;20051;-45
2022/09/11 06:05:14;;;;;;;44.92;21.83;;;15.00;99.90;;;;;;5040910;28;20098;-46
2022/09/11 06:07:40;;;;;;;34.55;20.70;;;15.00;99.90;;;;;;5043201;28;20068;-46
2022/09/11 06:10:07;;;;;;;45.53;23.23;;;15.00;99.90;;;;;;5019539;28;20036;-48
2022/09/11 06:12:32;;;;;;;38.28;22.33;;;15.00;99.90;;;;;;5021686;28;20041;-46
2022/09/11 06:14:57;;;;;;;44.20;21.48;;;15.00;99.90;;;;;;5020515;28;20103;-47
2022/09/11 06:17:23;;;;;;;43.45;23.10;;;15.10;99.90;;;;;;5020752;28;20036;-45
2022/09/11 06:19:48;;;;;;;36.75;21.13;;;15.10;99.90;;;;;;5011192;28;20042;-47
2022/09/11 06:22:14;;;;;;;46.08;24.10;;;15.10;99.90;;;;;;5032209;28;20090;-45
2022/09/11 06:24:39;;;;;;;34.90;20.85;;;15.10;99.90;;;;;;5044261;28;20025;-47
2022/09/11 06:27:05;;;;;;;43.25;21.38;;;15.10;99.90;;;;;;5023028;28;20519;-46
2022/09/11 06:29:31;;;;;;;42.90;22.77;;;15.10;99.90;;;;;;5018832;28;20050;-47
2022/09/11 06:31:57;;;;;;;42.25;24.35;;;15.10;99.90;;;;;;5021117;28;20483;-45
2022/09/11 06:34:23;;;;;;;47.28;26.13;;;15.20;99.90;;;;;;5017846;28;20361;-47
2022/09/11 06:36:49;;;;;;;42.00;22.92;;;15.10;99.90;;;;;;5022970;28;20049;-47
2022/09/11 06:39:14;;;;;;;45.72;26.63;;;15.20;99.90;;;;;;5019365;28;20567;-46
2022/09/11 06:41:40;;;;;;;52.80;26.50;;;15.20;99.90;;;;;;5017689;28;20033;-46
2022/09/11 06:44:06;;;;;;;48.10;25.73;;;15.20;99.90;;;;;;5018376;28;20030;-46
2022/09/11 06:46:31;;;;;;;46.97;24.63;;;15.10;99.90;;;;;;5019958;28;20010;-46
2022/09/11 06:48:57;;;;;;;48.35;24.77;;;15.10;99.90;;;;;;5023170;28;20479;-46
2022/09/11 06:51:22;;;;;;;46.13;25.60;;;15.20;99.90;;;;;;5032137;28;20048;-49
2022/09/11 06:53:53;;;;;;;44.50;23.45;;;15.20;99.90;;;;;;5041446;28;20102;-48
2022/09/11 06:56:18;;;;;;;49.15;25.55;;;15.20;99.90;;;;;;5050451;28;20074;-49
2022/09/11 06:58:44;;;;;;;46.80;25.67;;;15.20;99.90;;;;;;5049007;28;20060;-46
2022/09/11 07:01:14;;;;;;;45.80;25.60;;;15.20;99.90;;;;;;5049109;28;20078;-48
2022/09/11 07:03:45;;;;;;;47.42;25.45;;;15.20;99.90;;;;;;5048197;28;20133;-47
2022/09/11 07:06:12;;;;;;;49.25;26.10;;;15.20;99.90;;;;;;5049867;28;20033;-48
2022/09/11 07:08:38;;;;;;;54.65;28.75;;;15.30;99.90;;;;;;5040066;28;20455;-46
2022/09/11 07:11:04;;;;;;;50.58;27.65;;;15.30;99.90;;;;;;5047047;28;20035;-45
2022/09/11 07:13:31;;;;;;;46.25;24.15;;;15.30;99.90;;;;;;5044053;28;20048;-46
2022/09/11 07:16:04;;;;;;;44.13;26.20;;;15.40;99.90;;;;;;5041367;28;20028;-45
2022/09/11 07:18:35;;;;;;;51.05;27.17;;;15.40;99.90;;;;;;5049511;28;20029;-46
2022/09/11 07:21:04;;;;;;;54.25;29.08;;;15.50;99.90;;;;;;5048932;28;20055;-46
2022/09/11 07:23:29;;;;;;;52.30;27.92;;;15.50;99.90;;;;;;5035841;28;20061;-45
2022/09/11 07:25:55;;;;;;;52.92;29.23;;;15.50;99.90;;;;;;5029956;28;20092;-45
2022/09/11 07:28:20;;;;;;;51.85;29.75;;;15.50;99.90;;;;;;5031642;28;20032;-45
2022/09/11 07:30:46;;;;;;;48.65;28.05;;;15.50;99.90;;;;;;5041500;28;20048;-47
2022/09/11 07:33:11;;;;;;;50.22;28.55;;;15.60;99.90;;;;;;5048991;28;20502;-45
2022/09/11 07:35:37;;;;;;;54.50;31.98;;;15.60;99.90;;;;;;5050037;28;20017;-45
2022/09/11 07:38:03;;;;;;;51.42;29.73;;;15.60;99.90;;;;;;5049989;28;20182;-47
2022/09/11 07:40:28;;;;;;;45.83;28.15;;;15.60;99.90;;;;;;5049455;28;20021;-48
2022/09/11 07:42:54;;;;;;;48.03;29.08;;;15.60;99.90;;;;;;5048879;28;20522;-45
2022/09/11 07:45:20;;;;;;;54.97;30.30;;;15.60;99.90;;;;;;5049458;28;20031;-46
2022/09/11 07:47:45;;;;;;;57.55;32.78;;;15.60;99.90;;;;;;5048057;28;20045;-46
2022/09/11 07:50:11;;;;;;;48.17;28.02;;;15.60;99.90;;;;;;5049657;28;20049;-47
2022/09/11 07:52:37;;;;;;;42.35;27.33;;;15.60;99.90;;;;;;5048962;28;20075;-47
2022/09/11 07:55:02;;;;;;;50.10;30.48;;;15.60;99.90;;;;;;5049044;28;20033;-50
2022/09/11 07:57:31;;;;;;;48.45;28.63;;;15.60;99.90;;;;;;5029709;28;20139;-49
2022/09/11 07:59:56;;;;;;;42.00;26.45;;;15.60;99.90;;;;;;5035461;28;20031;-45
2022/09/11 08:02:22;;;;;;;52.45;28.60;;;15.60;99.90;;;;;;5028090;28;20038;-47
2022/09/11 08:04:48;;;;;;;44.10;27.35;;;15.60;99.90;;;;;;5028919;28;20486;-46
2022/09/11 08:07:13;;;;;;;42.45;26.23;;;15.60;99.90;;;;;;5029697;28;20383;-47
2022/09/11 08:09:39;;;;;;;37.75;23.95;;;15.70;99.90;;;;;;5040165;28;20116;-45
2022/09/11 08:12:05;;;;;;;40.75;25.48;;;15.70;99.90;;;;;;5048699;28;20071;-47
2022/09/11 08:14:30;;;;;;;40.75;24.95;;;15.80;99.90;;;;;;5041897;28;20033;-46
2022/09/11 08:16:56;;;;;;;42.63;25.75;;;15.90;99.90;;;;;;5041734;28;20021;-46
2022/09/11 08:19:22;;;;;;;42.85;25.85;;;15.90;99.90;;;;;;5048511;28;20074;-46
2022/09/11 08:21:49;;;;;;;36.40;25.10;;;16.00;99.90;;;;;;5048382;28;20029;-47
2022/09/11 08:24:19;;;;;;;39.15;25.02;;;16.00;99.90;;;;;;5046798;28;20094;-48
2022/09/11 08:26:44;;;;;;;39.38;23.83;;;16.10;99.90;;;;;;5036550;28;20044;-49
2022/09/11 08:29:10;;;;;;;39.55;25.45;;;16.10;99.90;;;;;;5031649;28;20391;-47
2022/09/11 08:31:36;;;;;;;36.60;24.15;;;16.10;99.90;;;;;;5025118;28;20034;-47
2022/09/11 08:34:01;;;;;;;35.05;24.35;;;16.10;99.90;;;;;;5026027;28;20030;-50
2022/09/11 08:36:28;;;;;;;41.42;26.58;;;16.20;99.90;;;;;;5028498;28;20433;-49
2022/09/11 08:38:54;;;;;;;43.55;26.45;;;16.30;99.90;;;;;;5029072;28;20041;-47
2022/09/11 08:41:23;;;;;;;40.92;25.70;;;16.50;99.90;;;;;;5028186;28;20032;-49
2022/09/11 08:43:55;;;;;;;41.80;25.52;;;16.70;99.90;;;;;;5028140;28;20132;-50
2022/09/11 08:46:25;;;;;;;38.67;24.33;;;17.30;99.90;;;;;;5029392;28;20033;-46
2022/09/11 08:49:01;;;;;;;26.10;19.60;;;17.90;99.90;;;;;;5029196;28;20438;-47
2022/09/11 08:51:26;;;;;;;27.17;19.83;;;18.40;99.90;;;;;;5029904;28;20064;-49
2022/09/11 08:53:55;;;;;;;26.83;19.20;;;18.80;99.90;;;;;;5032379;28;20053;-48
2022/09/11 08:56:23;;;;;;;25.13;16.58;;;19.30;99.90;;;;;;5040703;28;20025;-47
2022/09/11 08:59:17;;;;;;;22.27;15.85;;;19.90;99.90;;;;;;5047341;28;20021;-50
2022/09/11 09:02:01;;;;;;;21.20;14.75;;;20.70;99.90;;;;;;5052429;28;20043;-48
2022/09/11 09:04:39;;;;;;;20.13;15.90;;;20.70;99.90;;;;;;5052042;28;20029;-49
2022/09/11 09:07:28;;;;;;;20.25;15.68;;;20.80;99.90;;;;;;5050769;28;20025;-47
2022/09/11 09:10:19;;;;;;;23.88;17.33;;;21.00;99.90;;;;;;5043872;28;20096;-47
2022/09/11 09:12:57;;;;;;;21.35;16.52;;;20.70;99.90;;;;;;5050411;28;20013;-46
2022/09/11 09:15:23;;;;;;;21.67;17.33;;;20.70;99.90;;;;;;5052205;28;20060;-48
2022/09/11 09:18:11;;;;;;;19.27;15.32;;;20.70;99.90;;;;;;5052395;28;20046;-46
2022/09/11 09:20:45;;;;;;;25.65;18.77;;;20.60;99.90;;;;;;5032428;28;20048;-48
2022/09/11 09:23:24;;;;;;;20.77;15.93;;;20.50;99.90;;;;;;5051624;28;20048;-47
2022/09/11 09:25:52;;;;;;;20.95;15.55;;;20.50;99.90;;;;;;5052058;28;20534;-49
2022/09/11 09:28:24;;;;;;;20.38;16.10;;;20.50;99.90;;;;;;5052136;28;20032;-49
2022/09/11 09:30:58;;;;;;;22.45;15.35;;;20.40;99.90;;;;;;5052144;28;20387;-47
2022/09/11 09:33:26;;;;;;;17.55;13.43;;;20.50;99.90;;;;;;5051588;28;20632;-47
2022/09/11 09:35:53;;;;;;;19.23;14.20;;;20.70;99.90;;;;;;5032611;28;20071;-48
2022/09/11 09:38:26;;;;;;;20.45;14.65;;;20.60;99.90;;;;;;5039561;28;20029;-47
2022/09/11 09:41:16;;;;;;;18.15;13.07;;;20.40;99.90;;;;;;5047372;28;20025;-47
2022/09/11 09:44:07;;;;;;;18.13;13.60;;;20.60;99.90;;;;;;5051500;28;20176;-46
2022/09/11 09:46:41;;;;;;;17.38;13.73;;;20.60;99.90;;;;;;5051717;28;20103;-46
2022/09/11 09:49:10;;;;;;;19.52;13.70;;;20.50;99.90;;;;;;5051808;28;20029;-48
2022/09/11 09:51:38;;;;;;;18.45;13.40;;;20.50;99.90;;;;;;5051101;28;20470;-49
2022/09/11 09:54:04;;;;;;;17.38;13.35;;;20.50;99.90;;;;;;5050778;28;20078;-47
2022/09/11 09:56:32;;;;;;;17.65;12.70;;;20.40;99.90;;;;;;5051803;28;20029;-47
2022/09/11 09:59:12;;;;;;;17.85;13.80;;;20.40;99.90;;;;;;5051317;28;20051;-46
2022/09/11 10:01:51;;;;;;;14.48;12.00;;;20.60;99.90;;;;;;5051369;28;20029;-47
2022/09/11 10:04:24;;;;;;;19.63;11.68;;;20.80;99.90;;;;;;5050777;28;20519;-49
2022/09/11 10:06:52;;;;;;;19.92;14.20;;;20.80;99.90;;;;;;5051279;28;20689;-47
2022/09/11 10:09:27;;;;;;;16.95;11.93;;;20.90;99.90;;;;;;5039415;28;20035;-50
2022/09/11 10:12:01;;;;;;;12.38;10.38;;;22.10;99.90;;;;;;5046728;28;20146;-46
2022/09/11 10:14:33;;;;;;;13.45;9.27;;;23.80;99.90;;;;;;5050582;28;20021;-49
2022/09/11 10:17:00;;;;;;;12.50;8.63;;;24.10;98.30;;;;;;5050995;28;20470;-48
2022/09/11 10:19:39;;;;;;;13.05;9.85;;;24.20;97.80;;;;;;5050876;28;20029;-46
2022/09/11 10:22:31;;;;;;;13.60;9.75;;;25.30;96.00;;;;;;5051014;28;20028;-46
2022/09/11 10:25:21;;;;;;;12.02;9.25;;;25.90;94.80;;;;;;5040789;28;20116;-49
2022/09/11 10:28:14;;;;;;;17.48;15.10;;;25.50;94.10;;;;;;5033766;28;20014;-47
2022/09/11 10:30:59;;;;;;;18.98;14.05;;;25.20;93.50;;;;;;5030961;28;20029;-48
2022/09/11 10:33:32;;;;;;;11.48;9.30;;;24.50;93.90;;;;;;5030599;28;20026;-49
2022/09/11 10:36:00;;;;;;;11.75;9.40;;;23.60;95.60;;;;;;5029606;28;20025;-47
2022/09/11 10:38:45;;;;;;;13.98;10.75;;;23.10;96.50;;;;;;5032855;28;20132;-48
2022/09/11 10:41:11;;;;;;;14.93;10.32;;;22.50;98.40;;;;;;5042304;28;20025;-46
2022/09/11 10:44:01;;;;;;;10.07;8.50;;;23.40;98.30;;;;;;5049801;28;20043;-46
2022/09/11 10:46:37;;;;;;;10.68;8.88;;;24.20;97.20;;;;;;5049976;28;20413;-48
2022/09/11 10:49:02;;;;;;;14.63;9.10;;;25.40;95.20;;;;;;5050201;28;20059;-46
2022/09/11 10:51:31;;;;;;;11.20;8.25;;;25.50;93.30;;;;;;5050384;28;20017;-50
2022/09/11 10:54:15;;;;;;;10.10;7.60;;;24.80;94.20;;;;;;5050234;28;20029;-47
2022/09/11 10:56:57;;;;;;;12.02;9.00;;;24.60;93.90;;;;;;5050571;28;20104;-46
2022/09/11 10:59:53;;;;;;;11.90;9.07;;;24.00;95.20;;;;;;5048973;28;20028;-47
2022/09/11 11:02:27;;;;;;;13.25;10.13;;;23.50;95.00;;;;;;5049154;28;20114;-46
2022/09/11 11:04:55;;;;;;;12.50;8.70;;;23.20;95.60;;;;;;5050374;28;20024;-49
2022/09/11 11:07:49;;;;;;;10.25;8.40;;;24.20;95.20;;;;;;5047519;28;20033;-46
2022/09/11 11:10:23;;;;;;;11.65;8.02;;;24.80;95.10;;;;;;5040649;28;20460;-47
2022/09/11 11:13:14;;;;;;;9.32;7.45;;;26.80;92.40;;;;;;5050040;28;20021;-47
2022/09/11 11:16:04;;;;;;;8.93;7.05;;;28.00;89.80;;;;;;5049648;28;20062;-48
2022/09/11 11:19:11;;;;;;;9.23;6.78;;;28.00;87.60;;;;;;5050208;28;20774;-48
2022/09/11 11:22:01;;;;;;;6.60;5.90;;;29.50;84.10;;;;;;5039353;28;20080;-48
2022/09/11 11:24:45;;;;;;;8.57;6.28;;;29.70;83.20;;;;;;5049372;28;20021;-47
2022/09/11 11:27:44;;;;;;;9.23;5.97;;;28.20;81.70;;;;;;5049988;28;20063;-50
2022/09/11 11:30:13;;;;;;;6.53;5.50;;;27.20;85.80;;;;;;5050225;28;20027;-47
2022/09/11 11:33:07;;;;;;;6.90;6.07;;;27.20;84.80;;;;;;5049277;28;20013;-47
2022/09/11 11:35:55;;;;;;;9.48;6.70;;;26.50;82.70;;;;;;5049896;28;20514;-46
2022/09/11 11:38:38;;;;;;;8.93;6.75;;;25.50;86.70;;;;;;5044067;28;20017;-47
2022/09/11 11:41:18;;;;;;;8.45;7.25;;;24.70;90.50;;;;;;5041413;28;20096;-45
2022/09/11 11:43:47;;;;;;;9.18;6.68;;;23.90;91.30;;;;;;5049229;28;20051;-46
2022/09/11 11:46:29;;;;;;;9.02;7.53;;;23.10;92.60;;;;;;5049719;28;20025;-46
2022/09/11 11:49:24;;;;;;;9.48;7.68;;;22.60;94.00;;;;;;5050169;28;20112;-47
2022/09/11 11:52:01;;;;;;;8.98;7.38;;;22.00;94.70;;;;;;5045902;28;20075;-47
2022/09/11 11:54:58;;;;;;;10.07;7.32;;;21.90;95.80;;;;;;5047925;28;20032;-46
2022/09/11 11:57:30;;;;;;;14.75;8.95;;;21.80;96.40;;;;;;5049922;28;20017;-47
2022/09/11 12:00:09;;;;;;;10.23;7.82;;;21.70;96.70;;;;;;5049724;28;20033;-47
2022/09/11 12:02:42;;;;;;;7.97;7.15;;;21.50;97.30;;;;;;5048532;28;20102;-47
2022/09/11 12:05:16;;;;;;;11.73;7.68;;;21.40;97.70;;;;;;5049877;28;20557;-47
2022/09/11 12:07:41;;;;;;;12.40;8.40;;;21.50;98.00;;;;;;5045553;28;20033;-46
2022/09/11 12:10:28;;;;;;;12.50;9.60;;;21.30;97.40;;;;;;5038557;28;20364;-49
2022/09/11 12:12:59;;;;;;;12.43;9.48;;;20.80;98.70;;;;;;5049224;28;20032;-48
2022/09/11 12:15:29;;;;;;;11.80;8.63;;;20.50;99.70;;;;;;5049634;28;20079;-46
2022/09/11 12:18:04;;;;;;;10.25;8.70;;;20.20;99.90;;;;;;5049599;28;20493;-47
2022/09/11 12:20:42;;;;;;;11.23;7.95;;;20.00;99.90;;;;;;5049626;28;20037;-49
2022/09/11 12:23:30;;;;;;;12.65;8.70;;;19.90;99.90;;;;;;5049061;28;20040;-50
2022/09/11 12:26:18;;;;;;;11.68;7.72;;;19.90;99.90;;;;;;5051173;28;20053;-50
2022/09/11 12:28:44;;;;;;;7.93;7.13;;;19.90;99.90;;;;;;5053455;28;20079;-48
2022/09/11 12:31:15;;;;;;;10.13;7.57;;;19.80;99.90;;;;;;5053277;28;20017;-49
2022/09/11 12:33:40;;;;;;;12.30;7.22;;;19.80;99.90;;;;;;5052849;28;20031;-48
2022/09/11 12:36:13;;;;;;;11.90;8.27;;;19.70;99.90;;;;;;5037065;28;20029;-50
2022/09/11 12:38:47;;;;;;;14.40;9.43;;;19.60;99.90;;;;;;5032574;28;21299;-49
2022/09/11 12:41:21;;;;;;;16.00;10.07;;;19.40;99.90;;;;;;5041399;28;20121;-47
2022/09/11 12:43:48;;;;;;;15.10;10.13;;;19.20;99.90;;;;;;5032731;28;20049;-49
2022/09/11 12:46:19;;;;;;;15.68;9.82;;;18.80;99.90;;;;;;5032729;28;20022;-47
2022/09/11 12:48:49;;;;;;;17.35;11.23;;;18.70;99.90;;;;;;5032758;28;20036;-48
2022/09/11 12:51:37;;;;;;;14.52;10.13;;;18.60;99.90;;;;;;5026979;28;20112;-47
2022/09/11 12:54:17;;;;;;;14.60;10.07;;;18.60;99.90;;;;;;5016858;28;20026;-47